Terminal Aerodrome Forecast
Issued by NWS

Home | Current Version | Previous Version | Text Only | Print | Product List | Glossary On
Versions: 1 2 3 4 5 6 7 8 9 10 11 12 13 14 15 16 17 18 19
170
FTUS46 KEKA 261127
TAFUKI
TAF
KUKI 261127Z 2612/2712 00000KT 6SM BR BKN035 OVC050
     FM261300 33008KT 6SM -DZ BR OVC015
     FM261900 30012G16KT P6SM OVC030
     FM270000 32008G15KT P6SM OVC025
     FM270300 33005KT P6SM BKN025=

USA.gov is the U.S. government's official web portal to all federal, state and local government web resources and services.